createdAt,value
2022-10-18T00:02:00.400Z,101593.56
2022-10-18T00:04:30.144Z,101596.41
2022-10-18T00:07:02.337Z,101595.31
2022-10-18T00:09:31.899Z,101588.25
2022-10-18T00:12:01.590Z,101595.47
2022-10-18T00:14:31.275Z,101597.34
2022-10-18T00:17:00.808Z,101589.13
2022-10-18T00:19:30.359Z,101590.72
2022-10-18T00:22:02.696Z,101591.56
2022-10-18T00:24:32.316Z,101587.19
2022-10-18T00:27:01.960Z,101587.31
2022-10-18T00:29:31.645Z,101590.91
2022-10-18T00:32:01.196Z,101586.69
2022-10-18T00:34:30.838Z,101598.19
2022-10-18T00:37:03.145Z,101592.03
2022-10-18T00:39:32.860Z,101585.69
2022-10-18T00:42:03.426Z,101579.84
2022-10-18T00:45:03.197Z,101575.38
2022-10-18T00:47:32.951Z,101568.34
2022-10-18T00:50:04.981Z,101571.09
2022-10-18T00:52:39.736Z,101576.41
2022-10-18T00:55:10.212Z,101571.94
2022-10-18T00:57:40.483Z,101571.09
2022-10-18T01:00:11.909Z,101573.53
2022-10-18T01:02:44.336Z,101565.56
2022-10-18T01:05:15.279Z,101560.97
2022-10-18T01:08:17.898Z,101564.69
2022-10-18T01:10:54.520Z,101567.50
2022-10-18T01:13:32.684Z,101565.78
2022-10-18T01:16:06.108Z,101557.78
2022-10-18T01:18:40.466Z,101551.63
2022-10-18T01:21:38.839Z,101551.63
2022-10-18T01:24:40.688Z,101561.44
2022-10-18T01:27:27.277Z,101559.81
2022-10-18T01:30:14.347Z,101550.97
2022-10-18T01:32:50.586Z,101553.63
2022-10-18T01:35:23.000Z,101558.78
2022-10-18T01:37:53.781Z,101550.69
2022-10-18T01:40:25.224Z,101547.06
2022-10-18T01:42:55.114Z,101547.84
2022-10-18T01:45:25.985Z,101543.69
2022-10-18T01:47:58.621Z,101546.44
2022-10-18T01:50:33.144Z,101548.31
2022-10-18T01:53:03.300Z,101549.25
2022-10-18T01:55:38.975Z,101550.97
2022-10-18T01:58:13.311Z,101549.34
2022-10-18T02:00:44.776Z,101552.91
2022-10-18T02:03:21.662Z,101557.34
2022-10-18T02:05:57.307Z,101555.44
2022-10-18T02:08:30.868Z,101549.47
2022-10-18T02:11:04.185Z,101549.47
2022-10-18T02:13:38.098Z,101540.63
2022-10-18T02:16:12.759Z,101546.72
2022-10-18T02:18:47.426Z,101551.19
2022-10-18T02:21:19.772Z,101548.53
2022-10-18T02:23:49.915Z,101550.81
2022-10-18T02:26:19.596Z,101545.09
2022-10-18T02:28:49.317Z,101545.16
2022-10-18T02:31:22.960Z,101543.28
2022-10-18T02:33:56.990Z,101542.44
2022-10-18T02:36:30.720Z,101535.88
2022-10-18T02:39:05.587Z,101538.53
2022-10-18T02:41:35.704Z,101543.16
2022-10-18T02:44:05.214Z,101541.34
2022-10-18T02:46:34.837Z,101543.00
2022-10-18T02:49:06.971Z,101547.38
2022-10-18T02:51:37.379Z,101544.72
2022-10-18T02:54:08.378Z,101539.56
2022-10-18T02:56:38.433Z,101544.91
2022-10-18T02:59:08.252Z,101546.59
2022-10-18T03:01:37.868Z,101548.22
2022-10-18T03:04:10.079Z,101544.88
2022-10-18T03:06:39.696Z,101550.25
2022-10-18T03:09:09.593Z,101546.81
2022-10-18T03:11:39.148Z,101547.75
2022-10-18T03:14:08.683Z,101546.81
2022-10-18T03:16:38.312Z,101556.50
2022-10-18T03:19:10.420Z,101553.78
2022-10-18T03:21:39.979Z,101551.25
2022-10-18T03:24:09.777Z,101555.63
2022-10-18T03:26:39.362Z,101556.44
2022-10-18T03:29:09.027Z,101560.59
2022-10-18T03:31:38.987Z,101554.66
2022-10-18T03:34:11.213Z,101559.25
2022-10-18T03:36:41.559Z,101560.34
2022-10-18T03:39:11.087Z,101555.88
2022-10-18T03:41:40.616Z,101557.69
2022-10-18T03:44:10.296Z,101563.53
2022-10-18T03:46:39.933Z,101558.53
2022-10-18T03:49:12.047Z,101556.81
2022-10-18T03:51:41.624Z,101561.28
2022-10-18T03:54:11.132Z,101554.00
2022-10-18T03:56:40.699Z,101555.03
2022-10-18T03:59:10.283Z,101550.47
2022-10-18T04:01:39.837Z,101553.31
2022-10-18T04:04:12.038Z,101542.59
2022-10-18T04:06:41.612Z,101547.81
2022-10-18T04:09:11.170Z,101546.88
2022-10-18T04:11:40.761Z,101545.84
2022-10-18T04:14:10.308Z,101547.75
2022-10-18T04:16:39.913Z,101548.59
2022-10-18T04:19:12.078Z,101556.50
2022-10-18T04:21:41.803Z,101557.16
2022-10-18T04:24:11.332Z,101560.25
2022-10-18T04:26:40.939Z,101555.34
2022-10-18T04:29:10.609Z,101552.13
2022-10-18T04:31:40.227Z,101551.44
2022-10-18T04:34:12.497Z,101563.63
2022-10-18T04:36:42.045Z,101550.25
2022-10-18T04:39:11.574Z,101557.22
2022-10-18T04:41:41.218Z,101566.28
2022-10-18T04:44:10.901Z,101563.63
2022-10-18T04:46:40.437Z,101562.53
2022-10-18T04:49:12.577Z,101556.28
2022-10-18T04:51:42.269Z,101563.16
2022-10-18T04:54:11.831Z,101560.25
2022-10-18T04:56:41.547Z,101558.34
2022-10-18T04:59:11.124Z,101556.00
2022-10-18T05:01:40.754Z,101559.50
2022-10-18T05:04:12.933Z,101563.97
2022-10-18T05:06:42.511Z,101564.69
2022-10-18T05:09:12.045Z,101565.78
2022-10-18T05:11:41.835Z,101566.47
2022-10-18T05:14:11.857Z,101561.16
2022-10-18T05:16:41.403Z,101562.09
2022-10-18T05:19:13.583Z,101552.59
2022-10-18T05:21:43.146Z,101556.75
2022-10-18T05:24:14.391Z,101559.41
2022-10-18T05:26:43.999Z,101558.22
2022-10-18T05:29:13.676Z,101551.06
2022-10-18T05:31:43.317Z,101551.25
2022-10-18T05:34:15.440Z,101555.63
2022-10-18T05:36:45.115Z,101567.09
2022-10-18T05:39:14.768Z,101561.78
2022-10-18T05:41:44.286Z,101559.88
2022-10-18T05:44:13.832Z,101562.53
2022-10-18T05:46:43.450Z,101561.97
2022-10-18T05:49:16.028Z,101569.59
2022-10-18T05:51:45.797Z,101570.53
2022-10-18T05:54:15.661Z,101575.75
2022-10-18T05:56:45.340Z,101576.31
2022-10-18T05:59:14.920Z,101578.91
2022-10-18T06:01:45.610Z,101582.28
2022-10-18T06:04:17.970Z,101588.56
2022-10-18T06:06:47.596Z,101585.09
2022-10-18T06:09:17.178Z,101581.78
2022-10-18T06:11:46.906Z,101588.75
2022-10-18T06:14:16.484Z,101582.50
2022-10-18T06:16:46.048Z,101580.06
2022-10-18T06:19:18.181Z,101580.88
2022-10-18T06:21:47.711Z,101584.31
2022-10-18T06:24:18.393Z,101588.84
2022-10-18T06:26:47.944Z,101589.72
2022-10-18T06:29:17.685Z,101596.00
2022-10-18T06:31:47.224Z,101608.59
2022-10-18T06:34:19.351Z,101600.63
2022-10-18T06:36:48.873Z,101599.00
2022-10-18T06:39:18.373Z,101605.59
2022-10-18T06:41:47.914Z,101604.81
2022-10-18T06:44:22.267Z,101609.22
2022-10-18T06:46:53.511Z,101611.84
2022-10-18T06:49:25.669Z,101614.41
2022-10-18T06:51:56.712Z,101621.63
2022-10-18T06:54:26.245Z,101621.34
2022-10-18T06:56:58.686Z,101624.00
2022-10-18T06:59:31.157Z,101628.53
2022-10-18T07:02:01.257Z,101623.22
2022-10-18T07:04:33.857Z,101628.44
2022-10-18T07:07:03.522Z,101625.06
2022-10-18T07:09:33.468Z,101627.63
2022-10-18T07:12:03.048Z,101631.09
2022-10-18T07:14:32.587Z,101639.09
2022-10-18T07:17:02.775Z,101637.50
2022-10-18T07:19:35.031Z,101640.88
2022-10-18T07:22:04.697Z,101642.69
2022-10-18T07:24:34.353Z,101644.41
2022-10-18T07:27:03.862Z,101644.03
2022-10-18T07:29:33.426Z,101641.25
2022-10-18T07:32:02.956Z,101645.84
2022-10-18T07:34:35.172Z,101653.69
2022-10-18T07:37:04.805Z,101655.50
2022-10-18T07:39:34.378Z,101659.78
2022-10-18T07:42:03.926Z,101656.97
2022-10-18T07:44:33.472Z,101664.88
2022-10-18T07:47:03.037Z,101670.91
2022-10-18T07:49:35.176Z,101670.75
2022-10-18T07:52:04.813Z,101669.78
2022-10-18T07:54:34.327Z,101676.81
2022-10-18T07:57:03.933Z,101680.25
2022-10-18T07:59:33.601Z,101682.91
2022-10-18T08:02:03.256Z,101675.78
2022-10-18T08:04:35.453Z,101683.78
2022-10-18T08:07:05.419Z,101689.00
2022-10-18T08:09:34.994Z,101688.16
2022-10-18T08:12:04.614Z,101695.09
2022-10-18T08:14:34.305Z,101695.97
2022-10-18T08:17:03.920Z,101704.69
2022-10-18T08:19:36.161Z,101701.94
2022-10-18T08:22:05.742Z,101711.56
2022-10-18T08:24:35.279Z,101718.69
2022-10-18T08:27:04.891Z,101720.50
2022-10-18T08:29:34.473Z,101721.91
2022-10-18T08:32:04.111Z,101725.31
2022-10-18T08:34:36.442Z,101722.69
2022-10-18T08:37:06.048Z,101730.06
2022-10-18T08:39:35.571Z,101727.50
2022-10-18T08:42:26.639Z,101732.72
2022-10-18T08:44:56.820Z,101735.22
2022-10-18T08:47:37.579Z,101735.59
2022-10-18T08:50:14.888Z,101739.13
2022-10-18T08:52:48.459Z,101740.56
2022-10-18T08:55:23.635Z,101744.22
2022-10-18T08:57:54.625Z,101751.97
2022-10-18T09:00:25.941Z,101746.44
2022-10-18T09:03:16.477Z,101740.19
2022-10-18T09:05:52.577Z,101748.31
2022-10-18T09:08:40.888Z,101750.03
2022-10-18T09:11:22.743Z,101741.03
2022-10-18T09:14:20.380Z,101741.03
2022-10-18T09:16:55.544Z,101747.09
2022-10-18T09:19:33.885Z,101745.38
2022-10-18T09:22:10.230Z,101751.56
2022-10-18T09:24:42.453Z,101752.34
2022-10-18T09:27:18.256Z,101755.84
2022-10-18T09:29:57.239Z,101752.41
2022-10-18T09:32:33.526Z,101749.66
2022-10-18T09:35:07.580Z,101764.63
2022-10-18T09:37:39.765Z,101767.22
2022-10-18T09:40:19.045Z,101767.78
2022-10-18T09:42:55.723Z,101773.59
2022-10-18T09:45:29.320Z,101784.03
2022-10-18T09:48:06.460Z,101785.41
2022-10-18T09:50:40.245Z,101771.38
2022-10-18T09:53:18.121Z,101772.09
2022-10-18T09:55:56.942Z,101777.97
2022-10-18T09:58:27.169Z,101773.50
2022-10-18T10:00:58.185Z,101773.59
2022-10-18T10:03:28.296Z,101777.84
2022-10-18T10:06:06.320Z,101775.94
2022-10-18T10:08:38.603Z,101773.94
2022-10-18T10:11:08.151Z,101769.59
2022-10-18T10:13:37.873Z,101780.13
2022-10-18T10:16:08.006Z,101774.78
2022-10-18T10:18:39.532Z,101778.91
2022-10-18T10:21:10.777Z,101782.53
2022-10-18T10:23:50.039Z,101777.84
2022-10-18T10:26:25.719Z,101776.31
2022-10-18T10:28:55.347Z,101772.16
2022-10-18T10:31:30.333Z,101781.88
2022-10-18T10:34:04.632Z,101779.47
2022-10-18T10:36:36.190Z,101788.94
2022-10-18T10:39:12.563Z,101784.78
2022-10-18T10:41:43.397Z,101785.47
2022-10-18T10:44:18.769Z,101787.97
2022-10-18T10:46:48.978Z,101788.00
2022-10-18T10:52:28.795Z,101781.69
2022-10-18T10:55:34.160Z,101781.41
2022-10-18T10:57:53.744Z,101781.56
2022-10-18T11:00:39.655Z,101788.28
2022-10-18T11:03:28.077Z,101783.22
2022-10-18T11:06:00.973Z,101775.44
2022-10-18T11:08:34.638Z,101770.28
2022-10-18T11:11:19.263Z,101769.00
2022-10-18T11:14:13.293Z,101786.47
2022-10-18T11:16:54.468Z,101776.81
2022-10-18T11:19:35.635Z,101777.34
2022-10-18T11:22:07.544Z,101773.13
2022-10-18T11:24:39.215Z,101778.88
2022-10-18T11:27:14.512Z,101788.38
2022-10-18T11:29:51.734Z,101782.28
2022-10-18T11:32:25.905Z,101788.19
2022-10-18T11:35:10.163Z,101790.19
2022-10-18T11:37:49.988Z,101785.59
2022-10-18T11:40:33.304Z,101783.03
2022-10-18T11:43:10.387Z,101779.72
2022-10-18T11:45:45.282Z,101791.97
2022-10-18T11:48:28.841Z,101782.31
2022-10-18T11:51:03.110Z,101771.28
2022-10-18T11:53:39.408Z,101784.53
2022-10-18T11:56:15.685Z,101778.53
2022-10-18T11:58:54.441Z,101774.31
2022-10-18T12:01:30.650Z,101769.78
2022-10-18T12:04:05.890Z,101767.31
2022-10-18T12:06:39.553Z,101775.59
2022-10-18T12:09:16.396Z,101769.38
2022-10-18T12:11:52.294Z,101759.09
2022-10-18T12:14:32.224Z,101749.34
2022-10-18T12:17:39.743Z,101756.94
2022-10-18T12:19:56.243Z,101752.13
2022-10-18T12:22:29.120Z,101751.47
2022-10-18T12:24:58.815Z,101748.47
2022-10-18T12:27:36.472Z,101748.91
2022-10-18T12:30:14.053Z,101745.44
2022-10-18T12:32:56.520Z,101744.47
2022-10-18T12:35:35.403Z,101737.81
2022-10-18T12:38:19.294Z,101744.03
2022-10-18T12:40:51.199Z,101749.31
2022-10-18T12:43:22.066Z,101743.69
2022-10-18T12:45:56.797Z,101739.78
2022-10-18T12:48:32.781Z,101739.25
2022-10-18T12:51:08.112Z,101753.31
2022-10-18T12:53:38.392Z,101758.28
2022-10-18T12:56:41.745Z,101750.63
2022-10-18T12:59:56.078Z,101755.13
2022-10-18T13:02:30.829Z,101756.50
2022-10-18T13:05:48.781Z,101746.59
2022-10-18T13:08:40.696Z,101747.19
2022-10-18T13:11:40.413Z,101750.47
2022-10-18T13:14:22.789Z,101749.91
2022-10-18T13:16:55.598Z,101742.09
2022-10-18T13:19:34.592Z,101745.03
2022-10-18T13:22:18.976Z,101750.38
2022-10-18T13:24:56.557Z,101749.72
2022-10-18T13:27:36.639Z,101743.81
2022-10-18T13:30:33.247Z,101744.84
2022-10-18T13:33:17.092Z,101753.50
2022-10-18T13:35:57.457Z,101745.75
2022-10-18T13:38:47.138Z,101741.56
2022-10-18T13:41:19.452Z,101750.53
2022-10-18T13:44:25.593Z,101748.97
2022-10-18T13:47:36.993Z,101745.81
2022-10-18T13:50:29.461Z,101756.13
2022-10-18T13:53:35.152Z,101751.59
2022-10-18T13:56:21.472Z,101758.34
2022-10-18T13:59:13.410Z,101755.81
2022-10-18T14:01:53.443Z,101755.38
2022-10-18T14:04:49.985Z,101762.09
2022-10-18T14:07:21.120Z,101763.81
2022-10-18T14:09:57.597Z,101762.88
2022-10-18T14:12:35.397Z,101750.22
2022-10-18T14:15:08.731Z,101755.28
2022-10-18T14:17:43.033Z,101758.81
2022-10-18T14:20:29.548Z,101759.78
2022-10-18T14:23:05.532Z,101755.38
2022-10-18T14:25:39.556Z,101753.75
2022-10-18T14:28:12.747Z,101761.84
2022-10-18T14:30:54.898Z,101752.09
2022-10-18T14:33:33.384Z,101761.16
2022-10-18T14:36:06.202Z,101754.28
2022-10-18T14:38:38.139Z,101757.91
2022-10-18T14:41:17.792Z,101767.91
2022-10-18T14:43:48.230Z,101766.28
2022-10-18T14:46:24.183Z,101761.09
2022-10-18T14:48:58.514Z,101762.38
2022-10-18T14:51:28.307Z,101765.03
2022-10-18T14:53:58.238Z,101759.03
2022-10-18T14:56:33.235Z,101766.31
2022-10-18T14:59:04.705Z,101767.34
2022-10-18T15:01:36.403Z,101775.44
2022-10-18T15:04:09.706Z,101771.22
2022-10-18T15:06:39.285Z,101771.22
2022-10-18T15:09:09.390Z,101765.28
2022-10-18T15:11:41.895Z,101769.03
2022-10-18T15:14:17.315Z,101769.34
2022-10-18T15:16:48.148Z,101777.53
2022-10-18T15:19:33.071Z,101769.78
2022-10-18T15:22:31.304Z,101777.06
2022-10-18T15:25:17.387Z,101779.06
2022-10-18T15:27:51.389Z,101770.50
2022-10-18T15:30:28.157Z,101775.97
2022-10-18T15:32:59.368Z,101779.13
2022-10-18T15:35:31.581Z,101778.44
2022-10-18T15:38:03.584Z,101779.59
2022-10-18T15:40:39.361Z,101783.50
2022-10-18T15:43:39.500Z,101777.50
2022-10-18T15:46:09.459Z,101770.63
2022-10-18T15:48:40.258Z,101782.53
2022-10-18T15:51:11.328Z,101780.91
2022-10-18T15:53:46.517Z,101782.13
2022-10-18T15:56:29.635Z,101778.41
2022-10-18T15:59:04.028Z,101790.34
2022-10-18T16:01:39.950Z,101798.38
2022-10-18T16:04:13.985Z,101787.03
2022-10-18T16:06:43.683Z,101794.38
2022-10-18T16:09:16.197Z,101803.50
2022-10-18T16:11:47.012Z,101794.16
2022-10-18T16:14:19.153Z,101797.41
2022-10-18T16:16:49.282Z,101794.94
2022-10-18T16:19:21.288Z,101794.94
2022-10-18T16:21:51.261Z,101790.56
2022-10-18T16:24:21.161Z,101791.66
2022-10-18T16:26:51.243Z,101799.84
2022-10-18T16:29:26.845Z,101794.72
2022-10-18T16:31:58.263Z,101798.31
2022-10-18T16:34:28.277Z,101797.84
2022-10-18T16:36:58.383Z,101798.34
2022-10-18T16:39:28.499Z,101801.34
2022-10-18T16:41:58.045Z,101811.53
2022-10-18T16:44:30.338Z,101813.47
2022-10-18T16:46:59.930Z,101807.28
2022-10-18T16:49:29.465Z,101813.72
2022-10-18T16:51:59.642Z,101813.34
2022-10-18T16:54:29.168Z,101815.47
2022-10-18T16:56:58.724Z,101809.53
2022-10-18T16:59:32.186Z,101811.72
2022-10-18T17:02:05.567Z,101814.56
2022-10-18T17:04:35.253Z,101817.81
2022-10-18T17:07:05.965Z,101828.81
2022-10-18T17:09:36.957Z,101835.50
2022-10-18T17:12:07.116Z,101839.22
2022-10-18T17:14:39.239Z,101853.66
2022-10-18T17:17:08.806Z,101846.88
2022-10-18T17:19:38.362Z,101850.56
2022-10-18T17:22:07.966Z,101855.16
2022-10-18T17:24:37.604Z,101854.63
2022-10-18T17:27:07.269Z,101857.41
2022-10-18T17:29:40.980Z,101862.78
2022-10-18T17:32:10.663Z,101862.19
2022-10-18T17:37:11.026Z,101861.78
2022-10-18T17:39:40.643Z,101865.50
2022-10-18T17:42:10.197Z,101865.59
2022-10-18T17:44:43.256Z,101878.16
2022-10-18T17:47:12.815Z,101876.75
2022-10-18T17:49:44.334Z,101877.91
2022-10-18T17:52:14.431Z,101887.94
2022-10-18T17:54:44.019Z,101878.22
2022-10-18T17:57:13.601Z,101875.81
2022-10-18T17:59:45.852Z,101876.88
2022-10-18T18:02:15.412Z,101871.91
2022-10-18T18:04:45.183Z,101887.88
2022-10-18T18:07:14.968Z,101883.56
2022-10-18T18:09:44.697Z,101893.47
2022-10-18T18:12:14.256Z,101883.91
2022-10-18T18:14:46.409Z,101888.50
2022-10-18T18:17:24.667Z,101886.81
2022-10-18T18:20:03.323Z,101883.56
2022-10-18T18:22:33.323Z,101885.47
2022-10-18T18:25:03.426Z,101880.69
2022-10-18T18:27:32.942Z,101880.94
2022-10-18T18:30:05.059Z,101893.47
2022-10-18T18:32:35.900Z,101887.50
2022-10-18T18:35:05.485Z,101898.28
2022-10-18T18:37:35.085Z,101899.25
2022-10-18T18:40:04.613Z,101902.88
2022-10-18T18:42:35.197Z,101900.41
2022-10-18T18:45:08.420Z,101897.88
2022-10-18T18:47:37.942Z,101903.41
2022-10-18T18:50:08.051Z,101908.78
2022-10-18T18:52:37.630Z,101903.44
2022-10-18T18:55:08.232Z,101901.78
2022-10-18T18:57:37.765Z,101902.00
2022-10-18T19:00:13.296Z,101898.50
2022-10-18T19:02:42.926Z,101893.38
2022-10-18T19:05:12.566Z,101895.28
2022-10-18T19:07:42.473Z,101898.94
2022-10-18T19:10:13.403Z,101900.88
2022-10-18T19:12:42.986Z,101895.69
2022-10-18T19:15:15.826Z,101895.88
2022-10-18T19:17:46.182Z,101897.72
2022-10-18T19:20:18.104Z,101898.69
2022-10-18T19:22:49.046Z,101893.56
2022-10-18T19:25:21.178Z,101900.66
2022-10-18T19:27:53.293Z,101903.31
2022-10-18T19:30:25.687Z,101905.31
2022-10-18T19:33:01.168Z,101908.88
2022-10-18T19:35:33.355Z,101909.78
2022-10-18T19:38:03.085Z,101915.22
2022-10-18T19:40:33.278Z,101924.97
2022-10-18T19:43:02.892Z,101920.69
2022-10-18T19:45:35.687Z,101917.63
2022-10-18T19:48:05.467Z,101914.38
2022-10-18T19:50:35.820Z,101908.34
2022-10-18T19:53:05.495Z,101904.94
2022-10-18T19:55:36.711Z,101905.91
2022-10-18T19:58:08.029Z,101903.38
2022-10-18T20:00:41.211Z,101898.09
2022-10-18T20:03:11.535Z,101906.13
2022-10-18T20:05:42.424Z,101915.84
2022-10-18T20:08:13.978Z,101923.81
2022-10-18T20:10:44.762Z,101921.22
2022-10-18T20:13:14.464Z,101906.47
2022-10-18T20:15:46.626Z,101920.56
2022-10-18T20:18:16.224Z,101920.78
2022-10-18T20:20:48.074Z,101921.75
2022-10-18T20:23:18.317Z,101916.56
2022-10-18T20:25:58.308Z,101916.59
2022-10-18T20:28:28.199Z,101919.25
2022-10-18T20:31:09.730Z,101916.69
2022-10-18T20:33:40.608Z,101922.09
2022-10-18T20:36:12.739Z,101919.50
2022-10-18T20:38:44.365Z,101929.19
2022-10-18T20:41:15.857Z,101938.88
2022-10-18T20:43:46.091Z,101933.69
2022-10-18T20:46:18.361Z,101932.84
2022-10-18T20:48:47.927Z,101937.38
2022-10-18T20:51:17.483Z,101935.00
2022-10-18T20:53:47.452Z,101936.72
2022-10-18T20:56:20.112Z,101944.75
2022-10-18T20:58:51.383Z,101944.88
2022-10-18T21:01:24.887Z,101950.22
2022-10-18T21:03:56.328Z,101946.78
2022-10-18T21:06:27.114Z,101947.78
2022-10-18T21:08:58.089Z,101946.75
2022-10-18T21:11:32.820Z,101939.78
2022-10-18T21:14:03.638Z,101935.38
2022-10-18T21:16:37.280Z,101937.13
2022-10-18T21:19:07.089Z,101939.00
2022-10-18T21:21:36.900Z,101924.03
2022-10-18T21:24:07.815Z,101937.25
2022-10-18T21:26:38.446Z,101938.22
2022-10-18T21:29:08.710Z,101933.00
2022-10-18T21:31:42.907Z,101928.03
2022-10-18T21:34:15.700Z,101928.03
2022-10-18T21:36:47.121Z,101928.97
2022-10-18T21:39:18.596Z,101924.56
2022-10-18T21:41:48.735Z,101927.28
2022-10-18T21:44:19.589Z,101926.44
2022-10-18T21:46:51.924Z,101926.44
2022-10-18T21:49:24.842Z,101914.22
2022-10-18T21:51:54.356Z,101913.34
2022-10-18T21:58:08.936Z,101903.06
2022-10-18T22:00:38.567Z,101913.66
2022-10-18T22:03:15.943Z,101911.13
2022-10-18T22:09:30.555Z,101890.13
2022-10-18T22:12:00.190Z,101902.47
2022-10-18T22:14:29.925Z,101891.94
2022-10-18T22:16:59.438Z,101887.56
2022-10-18T22:19:31.732Z,101893.78
2022-10-18T22:22:01.266Z,101893.81
2022-10-18T22:24:30.840Z,101901.78
2022-10-18T22:27:00.404Z,101894.84
2022-10-18T22:29:30.041Z,101901.94
2022-10-18T22:32:01.735Z,101902.00
2022-10-18T22:34:33.837Z,101899.38
2022-10-18T22:37:03.408Z,101907.34
2022-10-18T22:39:33.063Z,101909.94
2022-10-18T22:42:02.622Z,101905.66
2022-10-18T22:44:32.173Z,101906.50
2022-10-18T22:47:01.707Z,101914.44
2022-10-18T22:49:33.838Z,101904.84
2022-10-18T22:52:03.497Z,101905.75
2022-10-18T22:54:33.037Z,101909.28
2022-10-18T22:57:02.641Z,101905.03
2022-10-18T22:59:32.184Z,101905.91
2022-10-18T23:02:01.781Z,101914.72
2022-10-18T23:04:34.074Z,101912.09
2022-10-18T23:07:03.635Z,101911.28
2022-10-18T23:09:33.380Z,101904.38
2022-10-18T23:12:06.319Z,101906.22
2022-10-18T23:14:35.871Z,101904.47
2022-10-18T23:17:05.429Z,101916.78
2022-10-18T23:19:37.572Z,101916.84
2022-10-18T23:22:07.316Z,101909.81
2022-10-18T23:24:37.028Z,101910.75
2022-10-18T23:27:06.813Z,101916.91
2022-10-18T23:29:36.497Z,101914.41
2022-10-18T23:32:06.126Z,101918.78
2022-10-18T23:34:38.295Z,101918.84
2022-10-18T23:37:07.871Z,101918.00
2022-10-18T23:39:37.397Z,101918.03
2022-10-18T23:42:07.172Z,101914.56
2022-10-18T23:44:36.713Z,101911.91
2022-10-18T23:47:06.385Z,101914.59
2022-10-18T23:49:38.552Z,101908.59
2022-10-18T23:52:08.377Z,101908.59
2022-10-18T23:54:38.108Z,101904.28
2022-10-18T23:57:07.682Z,101906.94
2022-10-18T23:59:37.261Z,101913.91
